Time;durP1;ratioP1;P1;durP2;ratioP2;P2;SDS_P1;SDS_P2;PMS_P1;PMS_P2;Temp;Humidity;BMP_temperature;BMP_pressure;BME280_temperature;BME280_humidity;BME280_pressure;Samples;Min_cycle;Max_cycle;Signal;HPM_P1;HPM_P2
2023/10/06 00:01:26;;;;;;;52.25;14.13;;;;;;;7.74;86.87;100804.34;10245492;29;19971;-75
2023/10/06 00:06:27;;;;;;;42.47;15.55;;;;;;;8.23;87.13;100892.53;10247192;28;20054;-76
2023/10/06 00:11:31;;;;;;;44.25;15.98;;;;;;;7.68;87.17;100812.00;10245875;29;20090;-76
2023/10/06 00:16:39;;;;;;;32.37;15.73;;;;;;;8.15;87.36;100902.13;10247352;28;20097;-76
2023/10/06 00:21:47;;;;;;;35.28;17.35;;;;;;;7.75;87.24;100834.28;10246888;28;20353;-75
2023/10/06 00:26:49;;;;;;;43.25;17.52;;;;;;;7.96;87.54;100895.84;10245681;29;20116;-76
2023/10/06 00:31:49;;;;;;;42.75;17.20;;;;;;;7.92;87.73;100898.88;10245823;28;20042;-75
2023/10/06 00:36:53;;;;;;;36.45;15.60;;;;;;;7.65;87.66;100865.16;10246482;28;20483;-76
2023/10/06 00:42:04;;;;;;;28.88;14.57;;;;;;;7.65;88.80;100862.50;10229469;28;20415;-75
2023/10/06 00:47:06;;;;;;;37.65;14.88;;;;;;;7.75;88.53;100887.19;10206160;29;20048;-75
2023/10/06 00:52:12;;;;;;;34.90;14.77;;;;;;;7.68;89.29;100897.44;10206671;29;20044;-75
2023/10/06 00:57:17;;;;;;;30.77;13.57;;;;;;;7.61;88.58;100892.84;10230676;29;20515;-76
2023/10/06 01:02:18;;;;;;;34.08;15.80;;;;;;;7.05;88.67;100813.09;10245670;28;20051;-76
2023/10/06 01:07:19;;;;;;;34.13;14.50;;;;;;;7.63;89.00;100889.09;10250518;28;20039;-76
2023/10/06 01:12:20;;;;;;;53.78;15.38;;;;;;;7.54;89.26;100864.31;10251888;29;20130;-76
2023/10/06 01:17:22;;;;;;;39.08;15.07;;;;;;;7.47;89.20;100849.13;10250813;29;20529;-76
2023/10/06 01:22:30;;;;;;;33.65;14.68;;;;;;;7.60;89.31;100888.50;10252007;28;20043;-76
2023/10/06 01:27:31;;;;;;;29.77;13.93;;;;;;;7.58;88.91;100891.31;10250628;29;20411;-76
2023/10/06 01:32:31;;;;;;;31.45;15.05;;;;;;;7.71;89.62;100897.19;10252003;29;20039;-76
2023/10/06 01:37:32;;;;;;;41.58;15.77;;;;;;;7.74;89.44;100910.13;10251221;28;20082;-76
2023/10/06 01:42:34;;;;;;;36.05;15.50;;;;;;;7.58;89.67;100882.53;10251543;28;20051;-76
2023/10/06 01:47:34;;;;;;;34.90;15.50;;;;;;;7.68;89.58;100915.97;10252029;28;20101;-76
2023/10/06 01:52:39;;;;;;;41.00;16.40;;;;;;;7.33;89.70;100866.19;10251402;28;20036;-76
2023/10/06 01:57:40;;;;;;;31.10;14.90;;;;;;;7.20;89.85;100845.28;10251094;28;20039;-76
2023/10/06 02:02:41;;;;;;;37.30;14.80;;;;;;;7.58;89.49;100923.03;10248687;28;20043;-75
2023/10/06 02:07:44;;;;;;;38.15;15.38;;;;;;;7.53;89.90;100904.09;10250124;28;20090;-76
2023/10/06 02:12:48;;;;;;;42.58;14.80;;;;;;;7.59;90.62;100918.59;10250788;28;20045;-76
2023/10/06 02:17:50;;;;;;;46.30;15.00;;;;;;;6.99;90.02;100839.22;10210789;29;20040;-76
2023/10/06 02:22:55;;;;;;;31.83;14.50;;;;;;;7.24;91.31;100890.75;10210491;29;20050;-76
2023/10/06 02:27:59;;;;;;;111.20;18.50;;;;;;;7.31;90.72;100911.25;10211323;29;20060;-76
2023/10/06 02:33:01;;;;;;;32.53;14.27;;;;;;;7.32;91.15;100906.78;10249136;29;20118;-77
2023/10/06 02:38:05;;;;;;;46.80;16.13;;;;;;;6.91;90.91;100845.19;10248076;29;20043;-78
2023/10/06 02:43:09;;;;;;;98.80;19.83;;;;;;;7.07;91.03;100887.78;10249827;28;20067;-76
2023/10/06 02:48:17;;;;;;;38.35;15.20;;;;;;;7.27;90.98;100891.34;10249219;28;20524;-76
2023/10/06 02:53:20;;;;;;;46.22;16.08;;;;;;;7.49;91.24;100915.91;10249415;29;20047;-76
2023/10/06 02:58:30;;;;;;;60.22;15.38;;;;;;;7.43;90.75;100905.88;10249768;29;20137;-75
2023/10/06 03:03:33;;;;;;;84.80;18.25;;;;;;;7.41;91.30;100906.00;10247342;28;20440;-73
2023/10/06 03:08:35;;;;;;;45.03;15.77;;;;;;;7.25;90.68;100895.94;10248892;28;20070;-72
2023/10/06 03:13:36;;;;;;;91.93;17.55;;;;;;;7.30;90.97;100909.59;10248885;28;20047;-73
2023/10/06 03:18:37;;;;;;;66.05;16.40;;;;;;;7.40;91.01;100895.56;10242938;28;20380;-72
2023/10/06 03:23:38;;;;;;;61.05;15.27;;;;;;;6.99;90.76;100841.88;10248348;28;20128;-72
2023/10/06 03:28:43;;;;;;;63.17;15.85;;;;;;;7.49;91.25;100907.97;10246965;28;20063;-72
2023/10/06 03:33:48;;;;;;;51.25;14.60;;;;;;;7.66;91.88;100907.34;10243730;28;20118;-74
2023/10/06 03:39:05;;;;;;;46.15;15.07;;;;;;;8.06;91.37;100926.78;10245907;28;20050;-72
2023/10/06 03:44:06;;;;;;;33.95;15.68;;;;;;;8.23;90.79;100920.81;10247908;28;20043;-71
2023/10/06 03:49:07;;;;;;;51.25;16.95;;;;;;;8.52;90.18;100928.75;10246928;28;20605;-72
2023/10/06 03:54:09;;;;;;;43.78;15.70;;;;;;;8.71;89.90;100932.38;10247561;28;20184;-72
2023/10/06 03:59:12;;;;;;;81.18;17.83;;;;;;;8.78;89.54;100907.81;10246090;28;20411;-75
2023/10/06 04:04:21;;;;;;;63.03;16.70;;;;;;;9.34;88.78;100946.72;10247854;28;20071;-71
2023/10/06 04:09:28;;;;;;;34.70;15.60;;;;;;;9.72;87.17;100938.72;10245367;29;20145;-75
2023/10/06 04:14:31;;;;;;;34.25;16.00;;;;;;;9.79;84.74;100886.75;10247019;28;20058;-74
2023/10/06 04:19:34;;;;;;;39.75;16.60;;;;;;;10.11;83.49;100904.84;10246809;28;20046;-72
2023/10/06 04:24:35;;;;;;;94.28;19.55;;;;;;;10.53;83.51;100946.75;10247922;28;20065;-75
2023/10/06 04:29:37;;;;;;;52.33;16.85;;;;;;;10.85;82.40;100938.19;10246571;29;20118;-73
2023/10/06 04:34:38;;;;;;;36.00;17.50;;;;;;;11.11;81.46;100916.09;10246552;28;20090;-75
2023/10/06 04:39:39;;;;;;;41.03;17.75;;;;;;;11.57;79.78;100943.25;10244261;28;20050;-73
2023/10/06 04:44:41;;;;;;;42.08;17.13;;;;;;;11.99;77.36;100937.09;10245804;28;20394;-72
2023/10/06 04:49:42;;;;;;;37.60;16.50;;;;;;;12.24;76.44;100932.66;10246064;28;20402;-72
2023/10/06 04:54:43;;;;;;;33.92;17.05;;;;;;;12.49;75.04;100938.84;10246013;28;20061;-73
2023/10/06 04:59:45;;;;;;;33.78;16.25;;;;;;;12.77;73.52;100945.53;10245956;28;20093;-73
2023/10/06 05:04:46;;;;;;;30.83;16.25;;;;;;;13.00;73.03;100942.16;10246102;28;20039;-72
2023/10/06 05:09:46;;;;;;;36.25;16.05;;;;;;;13.08;72.04;100912.81;10244952;28;20499;-72
2023/10/06 05:14:49;;;;;;;33.83;16.52;;;;;;;13.47;71.55;100941.41;10245552;28;20043;-73
2023/10/06 05:19:50;;;;;;;37.50;16.80;;;;;;;13.78;70.54;100936.09;10245254;28;20082;-72
2023/10/06 05:24:51;;;;;;;35.95;17.60;;;;;;;13.98;69.62;100941.84;10244129;29;20456;-73
2023/10/06 05:29:51;;;;;;;36.70;15.82;;;;;;;13.95;69.29;100883.41;10245922;29;20039;-72
2023/10/06 05:34:52;;;;;;;45.40;17.15;;;;;;;14.16;68.44;100864.91;10245108;28;20051;-72
2023/10/06 05:39:53;;;;;;;41.03;16.67;;;;;;;14.43;67.32;100878.72;10244323;28;20523;-72
2023/10/06 05:44:55;;;;;;;37.55;16.92;;;;;;;14.98;65.85;100924.88;10244665;28;20491;-73
2023/10/06 05:49:59;;;;;;;51.17;17.35;;;;;;;15.17;65.14;100920.84;10245981;28;20565;-72
2023/10/06 05:55:00;;;;;;;32.60;15.55;;;;;;;15.19;64.74;100865.28;10251381;28;20039;-72
2023/10/06 06:00:01;;;;;;;45.50;16.05;;;;;;;15.71;63.73;100904.50;10250564;28;20047;-72
2023/10/06 06:05:04;;;;;;;44.15;17.33;;;;;;;16.07;62.82;100899.13;10250618;28;20043;-72
2023/10/06 06:10:05;;;;;;;40.80;16.63;;;;;;;16.42;62.36;100908.13;10250950;28;20089;-75
2023/10/06 06:15:08;;;;;;;35.63;15.68;;;;;;;16.34;61.94;100849.28;10250629;28;20039;-72
2023/10/06 06:20:09;;;;;;;41.97;16.00;;;;;;;16.75;61.61;100894.16;10250537;28;20043;-72
2023/10/06 06:25:10;;;;;;;37.72;15.98;;;;;;;16.95;61.81;100882.75;10250138;28;20507;-72
2023/10/06 06:30:11;;;;;;;39.97;16.08;;;;;;;17.06;61.75;100874.16;10250436;28;20047;-73
2023/10/06 06:35:13;;;;;;;30.83;16.33;;;;;;;17.34;61.29;100860.66;10250508;28;20050;-72
2023/10/06 06:40:14;;;;;;;38.95;16.85;;;;;;;17.38;61.73;100812.75;10249960;28;20050;-72
2023/10/06 06:45:15;;;;;;;31.25;16.27;;;;;;;17.42;62.02;100814.03;10249319;28;20046;-72
2023/10/06 06:50:17;;;;;;;42.53;17.15;;;;;;;17.77;62.71;100855.91;10249802;28;20380;-71
2023/10/06 06:55:20;;;;;;;33.50;18.98;;;;;;;17.86;63.57;100834.19;10249857;28;20067;-72
2023/10/06 07:00:22;;;;;;;39.83;18.00;;;;;;;18.23;63.68;100846.25;10249740;28;20050;-72
2023/10/06 07:05:23;;;;;;;34.20;18.45;;;;;;;18.34;64.04;100834.06;10248677;28;20081;-72
2023/10/06 07:10:25;;;;;;;37.25;17.25;;;;;;;18.56;64.36;100827.41;10249214;28;20040;-72
2023/10/06 07:15:29;;;;;;;38.72;18.33;;;;;;;19.03;64.31;100817.41;10249112;28;20078;-72
2023/10/06 07:20:30;;;;;;;32.03;18.77;;;;;;;18.87;63.65;100761.34;10248337;28;20066;-72
2023/10/06 07:25:31;;;;;;;41.88;25.25;;;;;;;19.22;63.85;100801.41;10248179;28;20063;-72
2023/10/06 07:30:35;;;;;;;40.00;21.63;;;;;;;19.06;63.79;100746.97;10248385;29;20043;-72
2023/10/06 07:35:43;;;;;;;32.03;17.70;;;;;;;19.52;63.13;100786.31;10247684;28;20047;-72
2023/10/06 07:40:44;;;;;;;32.70;17.15;;;;;;;19.16;62.84;100681.88;10248054;29;20058;-72
2023/10/06 07:45:45;;;;;;;27.20;14.00;;;;;;;19.91;62.32;100783.59;10247571;29;20050;-72
2023/10/06 07:50:45;;;;;;;26.17;13.93;;;;;;;19.95;61.67;100764.09;10247775;28;20043;-72
2023/10/06 07:55:46;;;;;;;23.25;14.10;;;;;;;20.00;61.13;100771.50;10246962;29;20039;-72
2023/10/06 08:00:47;;;;;;;27.65;15.00;;;;;;;20.20;61.10;100758.69;10246848;28;20058;-72
2023/10/06 08:05:48;;;;;;;25.30;13.75;;;;;;;20.51;60.43;100751.53;10247084;28;20051;-72
2023/10/06 08:10:52;;;;;;;24.05;13.82;;;;;;;20.48;60.28;100738.47;10247197;28;20043;-72
2023/10/06 08:15:53;;;;;;;27.42;15.52;;;;;;;20.54;60.26;100736.81;10247326;28;20055;-72
2023/10/06 08:20:54;;;;;;;27.90;16.77;;;;;;;20.78;59.99;100726.97;10246863;28;20043;-72
2023/10/06 08:25:58;;;;;;;25.95;16.20;;;;;;;20.72;59.49;100717.91;10246983;28;20062;-72
2023/10/06 08:31:02;;;;;;;;;;;;;;;21.22;59.38;100722.25;10247360;28;20134;-71
2023/10/06 08:36:06;;;;;;;38.60;18.95;;;;;;;21.12;59.79;100706.59;10246997;28;19923;-72
2023/10/06 08:41:09;;;;;;;41.88;18.25;;;;;;;21.39;59.11;100707.91;10246310;28;20470;-72
2023/10/06 08:46:13;;;;;;;27.05;14.10;;;;;;;21.61;58.25;100693.84;10244979;29;20410;-72
2023/10/06 08:51:17;;;;;;;28.90;13.80;;;;;;;21.71;57.91;100688.69;10245609;28;20050;-72
2023/10/06 08:56:19;;;;;;;24.30;12.45;;;;;;;21.85;57.44;100687.41;10246980;28;20043;-72
2023/10/06 09:01:20;;;;;;;30.05;15.50;;;;;;;21.88;57.20;100676.13;10245626;28;20039;-72
2023/10/06 09:06:21;;;;;;;31.52;15.10;;;;;;;21.38;57.67;100649.50;10245709;28;20489;-72
2023/10/06 09:11:38;;;;;;;27.02;15.23;;;;;;;21.15;57.59;100668.34;10245571;28;20047;-72
2023/10/06 09:16:49;;;;;;;25.77;12.98;;;;;;;20.95;57.57;100650.50;10246108;28;20043;-72
2023/10/06 09:22:04;;;;;;;35.70;13.20;;;;;;;21.00;56.90;100632.78;10245361;28;20051;-72
2023/10/06 09:27:21;;;;;;;28.35;12.43;;;;;;;21.73;54.90;100627.09;10247971;28;20117;-72
2023/10/06 09:32:22;;;;;;;42.65;13.07;;;;;;;21.95;55.79;100615.69;10251507;28;20129;-72
2023/10/06 09:37:24;;;;;;;24.67;13.75;;;;;;;22.00;54.63;100597.69;10252180;28;20043;-72
2023/10/06 09:42:30;;;;;;;30.45;15.02;;;;;;;22.25;53.72;100592.00;10251627;28;20141;-72
2023/10/06 09:47:35;;;;;;;32.05;14.75;;;;;;;22.37;53.34;100588.47;10252150;28;20380;-72
2023/10/06 09:52:42;;;;;;;27.27;14.73;;;;;;;22.03;52.94;100539.59;10251577;28;20043;-72
2023/10/06 09:57:47;;;;;;;25.15;13.30;;;;;;;22.11;52.84;100585.22;10251358;28;20039;-72
2023/10/06 10:02:50;;;;;;;28.77;14.50;;;;;;;21.99;52.95;100587.13;10250747;28;20462;-72
2023/10/06 10:07:53;;;;;;;25.33;14.20;;;;;;;21.91;52.76;100571.25;10249768;29;20042;-72
2023/10/06 10:13:32;;;;;;;32.03;15.33;;;;;;;21.98;51.78;100570.03;10250363;28;20122;-72
2023/10/06 10:18:38;;;;;;;31.42;14.70;;;;;;;21.76;52.11;100567.13;10250300;28;20463;-72
2023/10/06 10:23:40;;;;;;;26.20;14.45;;;;;;;21.52;52.62;100496.03;10250893;28;20078;-72
2023/10/06 10:28:40;;;;;;;23.27;12.98;;;;;;;21.84;52.37;100547.84;10249777;28;20056;-72
2023/10/06 10:33:41;;;;;;;32.78;13.98;;;;;;;21.91;53.05;100534.19;10250793;29;20577;-72
2023/10/06 10:38:42;;;;;;;29.83;14.15;;;;;;;21.86;51.00;100521.38;10249338;28;20419;-72
2023/10/06 10:43:48;;;;;;;37.17;15.27;;;;;;;22.02;50.26;100532.53;10250532;28;20050;-74
2023/10/06 10:48:49;;;;;;;28.50;14.43;;;;;;;22.19;49.75;100530.72;10250586;28;20047;-72
2023/10/06 10:53:52;;;;;;;26.73;13.50;;;;;;;22.25;48.34;100521.66;10249104;28;20040;-72
2023/10/06 10:58:53;;;;;;;27.00;14.40;;;;;;;22.27;48.14;100511.41;10248864;28;20129;-72
2023/10/06 11:09:29;;;;;;;27.15;14.30;;;;;;;22.22;47.63;100467.19;10249234;28;20506;-72
2023/10/06 11:14:30;;;;;;;34.03;14.35;;;;;;;22.39;48.27;100457.25;10248993;28;20101;-72
2023/10/06 11:19:37;;;;;;;27.05;14.43;;;;;;;22.55;46.25;100456.47;10248856;28;20082;-73
2023/10/06 11:24:39;;;;;;;28.00;14.27;;;;;;;22.48;47.94;100447.66;10248906;28;20059;-72
2023/10/06 11:29:40;;;;;;;28.35;15.27;;;;;;;22.20;47.63;100423.34;10248339;29;20077;-72
2023/10/06 11:34:45;;;;;;;25.52;14.05;;;;;;;22.30;48.11;100459.50;10248324;29;20070;-72
2023/10/06 11:39:47;;;;;;;29.75;14.50;;;;;;;22.48;47.83;100454.97;10248248;28;20054;-73
2023/10/06 11:44:48;;;;;;;27.45;15.20;;;;;;;22.78;47.10;100469.00;10248102;28;20043;-73
2023/10/06 11:49:55;;;;;;;26.88;14.88;;;;;;;22.81;46.67;100472.31;10247806;28;20042;-72
2023/10/06 11:54:58;;;;;;;27.88;14.27;;;;;;;22.62;46.33;100450.06;10247029;29;20051;-72
2023/10/06 11:59:58;;;;;;;37.27;16.53;;;;;;;22.49;46.99;100445.75;10247011;29;20047;-72
2023/10/06 12:05:09;;;;;;;31.10;15.93;;;;;;;22.47;48.85;100456.84;10247548;28;20039;-72
2023/10/06 12:10:10;;;;;;;35.22;15.20;;;;;;;22.21;48.39;100439.31;10247335;28;20101;-72
2023/10/06 12:15:14;;;;;;;26.40;14.70;;;;;;;21.96;49.21;100425.31;10246811;29;20380;-72
2023/10/06 12:20:16;;;;;;;29.25;13.95;;;;;;;21.94;49.35;100440.94;10246913;28;20051;-72
2023/10/06 12:25:16;;;;;;;30.65;14.95;;;;;;;21.70;50.19;100418.56;10246496;28;20059;-72
2023/10/06 12:30:18;;;;;;;36.17;15.63;;;;;;;21.30;49.68;100357.16;10246667;29;20043;-72
2023/10/06 12:35:18;;;;;;;30.45;14.82;;;;;;;21.69;49.60;100433.97;10246762;28;20089;-73
2023/10/06 12:40:19;;;;;;;34.13;14.88;;;;;;;21.59;49.73;100431.03;10245693;29;20039;-73
2023/10/06 13:00:51;;;;;;;41.15;20.77;;;;;;;20.95;51.33;100412.88;11570287;23;20056;-73
2023/10/06 13:05:52;;;;;;;47.97;17.40;;;;;;;20.10;52.34;100286.38;10213994;29;20051;-72
2023/10/06 13:10:54;;;;;;;47.25;15.52;;;;;;;20.79;54.24;100413.56;10212799;29;20040;-72
2023/10/06 13:15:59;;;;;;;43.92;15.40;;;;;;;20.56;55.59;100418.94;10212866;29;20082;-73
2023/10/06 13:20:59;;;;;;;57.42;16.33;;;;;;;20.44;56.75;100417.00;10213288;29;20043;-72
2023/10/06 13:26:01;;;;;;;50.30;15.85;;;;;;;20.11;57.71;100404.00;10208419;29;20055;-72
2023/10/06 13:31:14;;;;;;;46.05;16.17;;;;;;;20.05;58.44;100426.50;10210542;29;20056;-73
2023/10/06 13:36:15;;;;;;;57.22;16.92;;;;;;;19.26;59.37;100333.97;10207623;29;20046;-72
2023/10/06 13:41:41;;;;;;;86.10;33.72;;;;;;;19.72;60.17;100426.94;10202746;29;20051;-75
2023/10/06 13:46:42;;;;;;;110.20;27.50;;;;;;;19.31;62.06;100388.00;10200602;29;20880;-73
2023/10/06 13:51:45;;;;;;;124.05;22.60;;;;;;;18.84;62.66;100349.94;10230501;28;20054;-75
2023/10/06 13:56:46;;;;;;;82.32;18.77;;;;;;;18.95;62.85;100381.53;10323654;28;20046;-74
2023/10/06 14:01:47;;;;;;;59.70;19.15;;;;;;;19.06;63.18;100423.88;10353765;28;20515;-76
2023/10/06 14:06:49;;;;;;;42.85;18.52;;;;;;;18.91;63.24;100409.94;10332243;28;20037;-74
2023/10/06 14:11:53;;;;;;;108.05;23.23;;;;;;;18.90;64.74;100422.56;10312010;28;20045;-74
2023/10/06 14:16:55;;;;;;;159.10;31.83;;;;;;;18.48;66.82;100364.94;10369714;28;20405;-76
2023/10/06 14:21:56;;;;;;;112.10;32.05;;;;;;;18.25;67.66;100358.28;10377563;28;20416;-74
2023/10/06 14:26:58;;;;;;;90.20;29.80;;;;;;;18.44;67.93;100415.66;10369986;28;20043;-74
2023/10/06 14:32:11;;;;;;;98.85;28.15;;;;;;;18.14;68.54;100385.06;10305196;28;20101;-74
2023/10/06 14:37:25;;;;;;;104.68;23.02;;;;;;;17.83;68.85;100375.09;10325826;28;20122;-75
2023/10/06 14:47:46;;;;;;;152.82;22.30;;;;;;;17.41;69.29;100371.94;10372635;28;19974;-73
2023/10/06 14:52:47;;;;;;;113.68;20.17;;;;;;;17.36;70.40;100396.75;10309921;28;20452;-75
2023/10/06 14:57:49;;;;;;;100.20;32.30;;;;;;;16.83;71.15;100344.00;10251880;28;20054;-73
2023/10/06 15:02:50;;;;;;;107.75;22.38;;;;;;;16.98;72.53;100404.66;10234027;28;20076;-76
2023/10/06 15:07:50;;;;;;;59.25;19.38;;;;;;;16.80;73.08;100406.13;10245735;29;20375;-74
2023/10/06 15:12:51;;;;;;;66.13;19.08;;;;;;;16.35;73.40;100351.44;10244994;28;20070;-74
2023/10/06 15:17:55;;;;;;;126.38;22.65;;;;;;;16.53;73.91;100407.13;10247149;29;20047;-74
2023/10/06 15:22:55;;;;;;;92.30;22.23;;;;;;;16.38;74.20;100399.28;10208854;29;20048;-75
2023/10/06 15:27:56;;;;;;;73.13;20.83;;;;;;;16.23;74.88;100402.13;10216153;29;20112;-74
2023/10/06 15:32:57;;;;;;;72.82;20.08;;;;;;;16.06;75.08;100398.19;10247951;28;20043;-75
2023/10/06 15:37:57;;;;;;;107.38;22.15;;;;;;;15.92;75.71;100400.84;10241000;28;20055;-73
2023/10/06 15:42:58;;;;;;;65.35;19.83;;;;;;;15.68;75.90;100375.41;10241675;28;20066;-80
2023/10/06 15:47:59;;;;;;;62.78;19.88;;;;;;;15.85;76.03;100405.34;10248221;28;20039;-74
2023/10/06 15:53:00;;;;;;;39.00;19.88;;;;;;;15.44;76.26;100347.28;10246777;29;20039;-76
2023/10/06 15:58:04;;;;;;;75.18;22.02;;;;;;;15.78;76.43;100415.22;10242700;28;20050;-76
2023/10/06 16:03:05;;;;;;;84.55;21.70;;;;;;;15.16;77.04;100335.81;10233920;29;20058;-75
2023/10/06 16:08:07;;;;;;;56.72;21.33;;;;;;;15.48;77.08;100409.28;10252886;28;20035;-75
2023/10/06 16:13:08;;;;;;;45.17;20.75;;;;;;;15.57;76.53;100413.44;10253718;28;20410;-73
2023/10/06 16:18:11;;;;;;;37.13;19.90;;;;;;;15.50;75.89;100394.66;10245485;28;20082;-74
2023/10/06 16:23:12;;;;;;;45.47;19.98;;;;;;;15.66;75.03;100414.91;10245595;28;20121;-71
2023/10/06 16:28:13;;;;;;;50.42;21.77;;;;;;;15.61;74.69;100405.81;10246458;28;20081;-72
2023/10/06 16:33:14;;;;;;;46.28;20.15;;;;;;;15.24;74.71;100346.38;10245183;28;20066;-77
2023/10/06 16:38:14;;;;;;;49.30;19.40;;;;;;;15.66;74.53;100406.06;10244078;28;20051;-80
2023/10/06 16:43:15;;;;;;;64.85;19.75;;;;;;;15.25;73.51;100353.34;10239498;28;20047;-74
2023/10/06 16:48:16;;;;;;;89.20;19.33;;;;;;;14.91;73.85;100308.72;10242515;28;20047;-73
2023/10/06 16:53:17;;;;;;;70.53;18.67;;;;;;;15.49;74.40;100410.91;10243481;28;20149;-73
2023/10/06 16:58:19;;;;;;;76.90;19.65;;;;;;;15.26;74.15;100390.63;10243688;29;20142;-73
2023/10/06 17:03:20;;;;;;;41.03;18.08;;;;;;;15.15;73.81;100372.44;10243469;28;20065;-73
2023/10/06 17:08:21;;;;;;;43.95;18.80;;;;;;;15.35;74.06;100414.56;10246714;28;20401;-73
2023/10/06 17:13:22;;;;;;;50.17;21.02;;;;;;;15.33;73.92;100408.59;10243321;28;20044;-73
2023/10/06 17:18:26;;;;;;;41.35;21.45;;;;;;;15.28;73.75;100401.13;10321968;28;20041;-73
2023/10/06 17:23:28;;;;;;;49.95;23.83;;;;;;;14.92;73.69;100345.97;10321691;28;20069;-73
2023/10/06 17:28:29;;;;;;;60.30;24.25;;;;;;;15.19;74.40;100407.66;10306167;28;20128;-73
2023/10/06 17:33:31;;;;;;;45.83;21.77;;;;;;;15.10;74.67;100395.47;10244893;29;20043;-74
2023/10/06 17:38:33;;;;;;;56.15;24.95;;;;;;;15.07;74.85;100397.50;10243837;29;20051;-74
2023/10/06 17:43:34;;;;;;;65.18;24.75;;;;;;;14.61;75.55;100333.84;10244964;28;20046;-74
2023/10/06 17:48:39;;;;;;;63.05;26.65;;;;;;;14.82;75.79;100373.06;10248586;28;20516;-73
2023/10/06 17:53:41;;;;;;;59.25;26.08;;;;;;;14.91;76.20;100381.78;10250906;28;20047;-74
2023/10/06 17:58:42;;;;;;;53.13;26.23;;;;;;;14.84;76.51;100380.91;10251931;28;20050;-73
2023/10/06 18:03:44;;;;;;;66.47;25.73;;;;;;;14.72;76.51;100355.72;10250448;28;20066;-73
2023/10/06 18:08:45;;;;;;;58.65;23.23;;;;;;;14.73;76.76;100362.72;10250578;28;20451;-73
2023/10/06 18:13:46;;;;;;;66.25;24.95;;;;;;;14.84;76.78;100373.72;10250320;28;20118;-74
2023/10/06 18:18:47;;;;;;;47.63;24.35;;;;;;;14.96;76.33;100378.53;10250302;28;20101;-73
2023/10/06 18:23:48;;;;;;;58.35;28.17;;;;;;;15.10;75.86;100366.03;10250577;28;20043;-73
2023/10/06 18:28:49;;;;;;;74.30;29.33;;;;;;;15.33;75.10;100377.28;10249787;28;20513;-73
2023/10/06 18:33:49;;;;;;;65.78;31.38;;;;;;;15.26;74.79;100347.00;10250848;28;20039;-73
2023/10/06 18:38:55;;;;;;;77.30;31.23;;;;;;;15.42;74.89;100372.59;10250553;28;20035;-73
2023/10/06 18:43:57;;;;;;;63.00;31.55;;;;;;;15.49;74.76;100393.00;10250100;28;20039;-73
2023/10/06 18:48:58;;;;;;;72.05;31.83;;;;;;;15.02;74.87;100322.38;10249100;28;20048;-74
2023/10/06 18:53:59;;;;;;;59.97;31.20;;;;;;;15.43;75.27;100379.59;10247973;28;20052;-73
2023/10/06 18:59:03;;;;;;;64.72;30.40;;;;;;;15.33;74.87;100374.59;10247145;28;20039;-74
2023/10/06 19:04:05;;;;;;;51.45;28.92;;;;;;;15.29;75.00;100374.19;10250339;28;20055;-74
2023/10/06 19:09:09;;;;;;;60.33;28.77;;;;;;;15.31;75.14;100371.28;10248694;28;20048;-73
2023/10/06 19:14:10;;;;;;;64.03;29.23;;;;;;;15.36;75.06;100379.56;10248530;28;20065;-73
2023/10/06 19:19:11;;;;;;;51.70;28.63;;;;;;;15.34;74.85;100384.28;10248948;28;20133;-72
2023/10/06 19:24:11;;;;;;;64.03;28.38;;;;;;;15.15;74.57;100360.94;10249254;28;20525;-72
2023/10/06 19:29:14;;;;;;;56.38;26.63;;;;;;;15.47;74.00;100402.28;10248002;29;20050;-72
2023/10/06 19:34:15;;;;;;;50.05;25.27;;;;;;;15.42;73.86;100375.28;10248433;28;20069;-72
2023/10/06 19:39:16;;;;;;;59.25;24.48;;;;;;;15.72;73.39;100413.31;10248754;28;20733;-72
2023/10/06 19:44:17;;;;;;;53.22;26.05;;;;;;;15.46;72.71;100357.78;10247547;28;20097;-73
2023/10/06 19:49:17;;;;;;;54.97;25.27;;;;;;;15.64;72.64;100378.66;10247957;28;20047;-72
2023/10/06 19:54:18;;;;;;;50.08;24.35;;;;;;;15.87;72.15;100422.03;10247879;28;20047;-72
2023/10/06 19:59:19;;;;;;;48.83;21.50;;;;;;;15.41;71.56;100393.19;10246716;28;20063;-72
2023/10/06 20:04:20;;;;;;;47.22;18.77;;;;;;;15.91;71.49;100484.06;10247006;28;20039;-73
2023/10/06 20:09:23;;;;;;;47.78;17.42;;;;;;;16.08;70.42;100508.69;10247195;28;20047;-72
2023/10/06 20:14:26;;;;;;;51.13;14.27;;;;;;;16.21;70.39;100516.75;10247277;28;20414;-72
2023/10/06 20:19:26;;;;;;;41.28;9.20;;;;;;;15.81;71.28;100452.31;10247067;28;20491;-72
2023/10/06 20:24:27;;;;;;;24.67;7.90;;;;;;;16.07;72.29;100515.09;10245943;28;20096;-72
2023/10/06 20:29:28;;;;;;;27.67;7.20;;;;;;;15.72;73.38;100480.28;10245043;29;20051;-73
2023/10/06 20:34:30;;;;;;;14.13;5.90;;;;;;;15.75;74.09;100507.50;10245561;29;20079;-72
2023/10/06 20:39:31;;;;;;;16.63;5.57;;;;;;;15.56;74.58;100492.13;10245888;28;20169;-72
2023/10/06 20:44:32;;;;;;;17.70;4.82;;;;;;;15.66;74.71;100513.19;10246418;28;20048;-72
2023/10/06 20:49:32;;;;;;;17.23;4.50;;;;;;;15.52;75.13;100510.44;10245855;29;20418;-72
2023/10/06 20:54:33;;;;;;;13.90;3.72;;;;;;;15.36;75.66;100488.50;10244811;29;20126;-72
2023/10/06 20:59:34;;;;;;;13.32;3.85;;;;;;;15.02;75.56;100437.41;10245426;28;20063;-72
2023/10/06 21:04:35;;;;;;;16.23;4.80;;;;;;;15.26;75.83;100484.31;10245956;29;20051;-72
2023/10/06 21:09:36;;;;;;;16.40;3.92;;;;;;;15.00;76.09;100443.97;10245197;28;20464;-72
2023/10/06 21:14:37;;;;;;;22.10;4.85;;;;;;;15.21;76.54;100469.84;10245850;28;20126;-72
2023/10/06 21:19:37;;;;;;;20.38;5.20;;;;;;;15.41;76.86;100502.13;10245536;28;20051;-72
2023/10/06 21:24:38;;;;;;;27.92;4.75;;;;;;;15.41;77.36;100510.97;10250667;28;20121;-72
2023/10/06 21:29:39;;;;;;;12.45;4.18;;;;;;;15.39;77.83;100517.53;10251757;28;20051;-72
2023/10/06 21:34:39;;;;;;;17.83;4.10;;;;;;;15.32;78.61;100505.97;10252554;28;20039;-72
2023/10/06 21:39:40;;;;;;;9.30;3.83;;;;;;;15.26;79.02;100505.72;10251425;28;20047;-72
2023/10/06 21:44:43;;;;;;;26.25;5.00;;;;;;;14.81;79.71;100448.97;10251860;28;20039;-72
2023/10/06 21:49:46;;;;;;;9.43;4.05;;;;;;;15.00;80.48;100506.31;10251832;28;20043;-72
2023/10/06 21:54:48;;;;;;;14.60;4.28;;;;;;;14.92;81.09;100517.16;10251556;28;20039;-73
2023/10/06 21:59:51;;;;;;;12.93;4.40;;;;;;;14.80;81.67;100530.22;10251960;28;20067;-72
2023/10/06 22:04:52;;;;;;;10.13;4.85;;;;;;;14.79;81.83;100541.94;10251351;28;20051;-72
2023/10/06 22:09:53;;;;;;;13.07;5.13;;;;;;;14.72;82.53;100534.88;10252380;28;20126;-72
2023/10/06 22:14:54;;;;;;;8.88;4.13;;;;;;;14.70;83.02;100536.91;10250415;28;20043;-72
2023/10/06 22:19:55;;;;;;;11.25;5.07;;;;;;;14.41;83.58;100509.22;10250363;28;20482;-72
2023/10/06 22:24:55;;;;;;;14.88;9.10;;;;;;;14.27;84.19;100496.72;10249236;28;20055;-72
2023/10/06 22:29:57;;;;;;;14.73;6.13;;;;;;;14.27;84.66;100513.59;10250040;28;20039;-72
2023/10/06 22:34:58;;;;;;;10.63;6.05;;;;;;;14.15;84.96;100526.63;10248912;28;20043;-72
2023/10/06 22:40:00;;;;;;;13.93;5.82;;;;;;;13.95;85.33;100503.34;10250487;28;20058;-75
2023/10/06 22:45:01;;;;;;;15.10;4.57;;;;;;;13.47;84.93;100421.81;10210645;29;20046;-72
2023/10/06 22:50:02;;;;;;;13.10;4.32;;;;;;;14.24;84.76;100529.16;10209877;29;20062;-72
2023/10/06 22:55:04;;;;;;;11.27;4.00;;;;;;;13.84;84.19;100453.88;10209566;29;20040;-72
2023/10/06 23:00:10;;;;;;;10.82;3.97;;;;;;;13.83;84.43;100433.56;10209587;29;20083;-72
2023/10/06 23:05:11;;;;;;;10.57;4.30;;;;;;;13.98;83.84;100450.38;10210327;29;20051;-72
2023/10/06 23:10:14;;;;;;;11.65;3.80;;;;;;;13.85;83.62;100423.50;10211070;29;20080;-72